Alma, IL (62807)

05:27 AM CDT del 28 Luglio 2016 (GMT -0500)
Alma Park | | Change Station

Alt. 640 ft 38.72 °N, 88.91 °W | Updated 14 minutes ago

Overcast
Coperto
71.8 °F
Sembra 71.8 °F
N
1.6
Vento Variabile Vento da OSO

Oggi
Massima -- | Minima -- °F
--% Possibilità di precip.
Ieri
Massima -- | Minima -- °F
Precip. -- in
Pressione 29.89 in
Visibilità 7.0 miglia
Nuvole Coperto 1000 ft
Punto di rugiada 70 °F
Umidità 94%
Piovosità 0.00 in
Spessore del manto nevoso Non disponibile.
5:54 AM 8:09 PM
Luna calante, 33% visible
METAR KSLO 281015Z AUTO 00000KT 7SM OVC010 24/22 A2989 RMK AO2 T02350221
Pressione 29.89 in
Visibilità 7.0 miglia
Nuvole Coperto 1000 ft
Punto di rugiada 70 °F
Umidità 94%
Piovosità 0.00 in
Spessore del manto nevoso Non disponibile.
5:54 AM 8:09 PM
Luna calante, 33% visible
METAR KSLO 281015Z AUTO 00000KT 7SM OVC010 24/22 A2989 RMK AO2 T02350221

10-Day Weather Forecast

Almanac

Astronomia

Jul. 28, 2016 Alba Tramonto
Ora attuale
Crepuscolo civile
Crepuscolo nautico
Crepuscolo astronomico
Luna
Estensione della luce visibile
Lunghezza del giorno
Tomorrow will be .
, % of the Moon is Illuminated

Gli estremi di oggi

State Highs State Lows

Community

WunderPhotos

Upload Photos

1,928,081 foto caricate!

WunderBlog® & News

Nearby

Qualità dell'aria

  Qualità dell'aria Indice AQ Inquinante
Not available.

Profondità neve

Stazione Profondità Altitudine

Attività sismica

Città  Distanza Mag. Data & Ora
Minimo Magnitudo Mostrato è 2.5.

Temperature delle acque costiere

Località Temperatura

Stations

Stazioni meteo nelle vicinanze

Ubicazione della stazione Temp. Raffreddamento del vento Punto di rugiada Umidità Vento Precip. Alt. Aggiornato Tipo
                   

Watches & Warnings

There are currently no watches in effect.